createdAt,value
2018-08-07T00:00:49.344Z,100784.53
2018-08-07T00:01:55.292Z,100783.12
2018-08-07T00:03:00.776Z,100781.57
2018-08-07T00:04:06.576Z,100780.02
2018-08-07T00:05:12.285Z,100781.54
2018-08-07T00:06:18.770Z,100776.52
2018-08-07T00:07:24.343Z,100777.97
2018-08-07T00:08:29.804Z,100776.25
2018-08-07T00:09:35.367Z,100778.21
2018-08-07T00:10:40.821Z,100775.59
2018-08-07T00:11:46.978Z,100776.49
2018-08-07T00:12:52.909Z,100774.22
2018-08-07T00:13:58.410Z,100772.54
2018-08-07T00:15:04.525Z,100772.44
2018-08-07T00:16:10.104Z,100766.80
2018-08-07T00:17:16.692Z,100765.60
2018-08-07T00:18:22.740Z,100768.79
2018-08-07T00:19:28.216Z,100766.56
2018-08-07T00:20:33.676Z,100770.49
2018-08-07T00:21:39.218Z,100765.00
2018-08-07T00:22:45.364Z,100765.13
2018-08-07T00:23:51.509Z,100767.74
2018-08-07T00:24:57.245Z,100764.91
2018-08-07T00:26:02.712Z,100762.68
2018-08-07T00:27:08.376Z,100764.14
2018-08-07T00:28:14.025Z,100762.94
2018-08-07T00:29:20.340Z,100759.85
2018-08-07T00:30:25.896Z,100765.20
2018-08-07T00:31:31.349Z,100762.79
2018-08-07T00:32:37.401Z,100760.72
2018-08-07T00:33:43.625Z,100762.61
2018-08-07T00:34:50.288Z,100755.34
2018-08-07T00:35:56.348Z,100756.28
2018-08-07T00:37:01.844Z,100758.80
2018-08-07T00:38:07.380Z,100759.87
2018-08-07T00:39:13.879Z,100757.11
2018-08-07T00:40:20.576Z,100758.16
2018-08-07T00:41:26.475Z,100756.95
2018-08-07T00:42:32.013Z,100759.91
2018-08-07T00:43:37.546Z,100759.47
2018-08-07T00:44:43.399Z,100758.65
2018-08-07T00:45:49.181Z,100755.16
2018-08-07T00:46:54.863Z,100749.27
2018-08-07T00:48:00.432Z,100746.46
2018-08-07T00:49:06.229Z,100749.89
2018-08-07T00:50:15.794Z,100749.73
2018-08-07T00:51:21.277Z,100743.36
2018-08-07T00:52:26.977Z,100745.62
2018-08-07T00:53:32.421Z,100740.88
2018-08-07T00:54:37.916Z,100745.52
2018-08-07T00:55:43.403Z,100736.34
2018-08-07T00:56:49.133Z,100737.99
2018-08-07T00:57:54.592Z,100739.84
2018-08-07T00:59:00.069Z,100736.31
2018-08-07T01:00:09.701Z,100741.33
2018-08-07T01:01:15.935Z,100733.52
2018-08-07T01:02:21.651Z,100732.08
2018-08-07T01:03:27.221Z,100729.03
2018-08-07T01:04:32.980Z,100731.73
2018-08-07T01:05:38.434Z,100728.15
2018-08-07T01:06:43.988Z,100723.67
2018-08-07T01:07:49.912Z,100725.45
2018-08-07T01:08:55.372Z,100724.78
2018-08-07T01:10:00.917Z,100726.97
2018-08-07T01:11:06.688Z,100728.21
2018-08-07T01:12:12.207Z,100725.35
2018-08-07T01:13:18.621Z,100724.87
2018-08-07T01:14:24.380Z,100722.94
2018-08-07T01:15:30.257Z,100724.91
2018-08-07T01:16:35.753Z,100720.27
2018-08-07T01:17:41.256Z,100725.22
2018-08-07T01:18:46.770Z,100724.64
2018-08-07T01:19:52.409Z,100721.22
2018-08-07T01:20:57.961Z,100721.83
2018-08-07T01:22:03.586Z,100723.41
2018-08-07T01:23:09.869Z,100718.59
2018-08-07T01:24:15.944Z,100725.27
2018-08-07T01:25:23.634Z,100720.78
2018-08-07T01:26:29.132Z,100722.94
2018-08-07T01:27:34.582Z,100728.47
2018-08-07T01:28:40.118Z,100721.80
2018-08-07T01:29:46.964Z,100727.55
2018-08-07T01:30:52.595Z,100721.15
2018-08-07T01:31:58.177Z,100714.72
2018-08-07T01:33:03.616Z,100718.63
2018-08-07T01:34:09.144Z,100722.69
2018-08-07T01:35:15.090Z,100720.73
2018-08-07T01:36:20.836Z,100717.95
2018-08-07T01:37:26.505Z,100716.24
2018-08-07T01:38:31.964Z,100719.77
2018-08-07T01:39:37.413Z,100716.64
2018-08-07T01:40:42.948Z,100719.25
2018-08-07T01:41:48.696Z,100719.77
2018-08-07T01:42:54.625Z,100718.02
2018-08-07T01:44:00.131Z,100715.33
2018-08-07T01:45:06.682Z,100722.00
2018-08-07T01:46:12.216Z,100721.91
2018-08-07T01:47:18.369Z,100718.66
2018-08-07T01:48:24.557Z,100716.70
2018-08-07T01:49:30.052Z,100716.22
2018-08-07T01:50:35.521Z,100716.95
2018-08-07T01:51:41.060Z,100715.17
2018-08-07T01:52:46.852Z,100707.81
2018-08-07T01:53:52.837Z,100706.90
2018-08-07T01:54:58.288Z,100704.58
2018-08-07T01:56:03.788Z,100705.24
2018-08-07T01:57:09.211Z,100707.11
2018-08-07T01:58:14.983Z,100710.28
2018-08-07T01:59:20.650Z,100705.81
2018-08-07T02:00:26.524Z,100706.88
2018-08-07T02:01:32.073Z,100710.73
2018-08-07T02:02:37.845Z,100709.05
2018-08-07T02:03:43.634Z,100708.78
2018-08-07T02:04:49.900Z,100702.58
2018-08-07T02:05:55.536Z,100702.84
2018-08-07T02:07:01.017Z,100707.45
2018-08-07T02:08:07.046Z,100703.89
2018-08-07T02:09:12.633Z,100696.73
2018-08-07T02:10:20.035Z,100696.83
2018-08-07T02:11:25.449Z,100700.29
2018-08-07T02:12:30.981Z,100697.69
2018-08-07T02:13:36.465Z,100702.77
2018-08-07T02:14:41.872Z,100704.54
2018-08-07T02:15:47.391Z,100698.52
2018-08-07T02:16:52.950Z,100698.77
2018-08-07T02:17:58.473Z,100700.46
2018-08-07T02:19:04.011Z,100696.81
2018-08-07T02:20:15.336Z,100696.00
2018-08-07T02:21:20.824Z,100694.97
2018-08-07T02:22:26.260Z,100700.80
2018-08-07T02:23:32.229Z,100701.28
2018-08-07T02:24:37.792Z,100693.02
2018-08-07T02:25:43.265Z,100697.30
2018-08-07T02:26:48.707Z,100698.78
2018-08-07T02:27:54.195Z,100700.94
2018-08-07T02:28:59.752Z,100698.98
2018-08-07T02:30:06.617Z,100697.13
2018-08-07T02:31:12.037Z,100692.48
2018-08-07T02:32:18.254Z,100689.50
2018-08-07T02:33:23.865Z,100689.71
2018-08-07T02:34:29.309Z,100694.70
2018-08-07T02:35:34.833Z,100695.55
2018-08-07T02:36:40.343Z,100695.64
2018-08-07T02:37:47.142Z,100685.98
2018-08-07T02:38:53.020Z,100692.48
2018-08-07T02:39:58.525Z,100686.25
2018-08-07T02:41:04.074Z,100691.66
2018-08-07T02:42:09.822Z,100688.11
2018-08-07T02:43:16.026Z,100687.37
2018-08-07T02:44:21.609Z,100687.83
2018-08-07T02:45:27.074Z,100685.41
2018-08-07T02:46:32.664Z,100684.02
2018-08-07T02:47:38.458Z,100681.33
2018-08-07T02:48:44.094Z,100676.47
2018-08-07T02:49:50.137Z,100684.03
2018-08-07T02:50:56.089Z,100685.60
2018-08-07T02:52:01.773Z,100684.47
2018-08-07T02:53:07.260Z,100687.23
2018-08-07T02:54:12.798Z,100686.94
2018-08-07T02:55:18.426Z,100689.17
2018-08-07T02:56:24.059Z,100686.41
2018-08-07T02:57:29.541Z,100685.94
2018-08-07T02:58:35.095Z,100683.56
2018-08-07T02:59:40.572Z,100675.66
2018-08-07T03:00:46.686Z,100674.27
2018-08-07T03:01:52.334Z,100679.30
2018-08-07T03:02:57.777Z,100675.31
2018-08-07T03:04:03.289Z,100672.98
2018-08-07T03:05:09.792Z,100677.07
2018-08-07T03:06:15.973Z,100673.56
2018-08-07T03:07:21.907Z,100663.36
2018-08-07T03:08:27.357Z,100672.02
2018-08-07T03:09:33.117Z,100667.91
2018-08-07T03:10:38.579Z,100668.77
2018-08-07T03:11:44.153Z,100668.00
2018-08-07T03:12:49.775Z,100666.61
2018-08-07T03:13:55.257Z,100670.76
2018-08-07T03:15:00.840Z,100669.07
2018-08-07T03:16:06.665Z,100668.77
2018-08-07T03:17:12.109Z,100670.98
2018-08-07T03:18:17.963Z,100671.45
2018-08-07T03:19:23.586Z,100673.19
2018-08-07T03:20:29.140Z,100667.86
2018-08-07T03:21:34.649Z,100671.06
2018-08-07T03:22:40.194Z,100666.16
2018-08-07T03:23:46.130Z,100663.25
2018-08-07T03:24:51.647Z,100669.00
2018-08-07T03:25:57.090Z,100665.10
2018-08-07T03:27:02.624Z,100666.97
2018-08-07T03:28:08.092Z,100660.56
2018-08-07T03:29:14.352Z,100667.61
2018-08-07T03:30:21.105Z,100672.62
2018-08-07T03:31:26.562Z,100658.26
2018-08-07T03:32:32.045Z,100656.10
2018-08-07T03:33:37.492Z,100657.23
2018-08-07T03:34:42.984Z,100661.49
2018-08-07T03:35:48.554Z,100655.86
2018-08-07T03:36:54.031Z,100657.90
2018-08-07T03:37:59.556Z,100658.38
2018-08-07T03:39:08.636Z,100659.55
2018-08-07T03:40:17.753Z,100660.33
2018-08-07T03:41:23.262Z,100658.17
2018-08-07T03:42:28.738Z,100657.09
2018-08-07T03:43:34.691Z,100654.19
2018-08-07T03:44:40.139Z,100661.37
2018-08-07T03:45:46.259Z,100662.66
2018-08-07T03:46:52.080Z,100656.56
2018-08-07T03:47:57.508Z,100658.21
2018-08-07T03:49:02.800Z,100654.31
2018-08-07T03:50:09.844Z,100657.86
2018-08-07T03:51:15.709Z,100656.91
2018-08-07T03:52:21.306Z,100656.17
2018-08-07T03:53:26.809Z,100658.69
2018-08-07T03:54:32.303Z,100661.55
2018-08-07T03:55:37.418Z,100655.26
2018-08-07T03:56:42.954Z,100661.55
2018-08-07T03:57:49.605Z,100659.42
2018-08-07T03:58:55.294Z,100656.64
2018-08-07T04:00:00.785Z,100660.13
2018-08-07T04:01:06.259Z,100660.77
2018-08-07T04:02:11.689Z,100657.08
2018-08-07T04:03:18.597Z,100655.57
2018-08-07T04:04:24.428Z,100661.89
2018-08-07T04:05:29.950Z,100662.72
2018-08-07T04:06:35.417Z,100661.89
2018-08-07T04:07:40.949Z,100660.33
2018-08-07T04:08:46.270Z,100660.59
2018-08-07T04:09:52.212Z,100659.77
2018-08-07T04:10:57.778Z,100664.10
2018-08-07T04:12:03.340Z,100663.58
2018-08-07T04:13:08.460Z,100664.39
2018-08-07T04:14:13.993Z,100656.95
2018-08-07T04:15:20.280Z,100663.84
2018-08-07T04:16:26.313Z,100665.03
2018-08-07T04:17:31.829Z,100660.84
2018-08-07T04:18:37.292Z,100665.69
2018-08-07T04:19:42.787Z,100668.12
2018-08-07T04:20:48.532Z,100670.98
2018-08-07T04:21:54.326Z,100671.06
2018-08-07T04:22:59.838Z,100669.62
2018-08-07T04:24:05.292Z,100668.69
2018-08-07T04:25:10.801Z,100667.91
2018-08-07T04:26:16.465Z,100670.24
2018-08-07T04:27:21.982Z,100670.80
2018-08-07T04:28:27.469Z,100670.50
2018-08-07T04:29:32.926Z,100668.45
2018-08-07T04:30:38.364Z,100666.69
2018-08-07T04:31:44.030Z,100672.45
2018-08-07T04:32:49.553Z,100670.92
2018-08-07T04:33:55.181Z,100673.63
2018-08-07T04:35:00.636Z,100669.91
2018-08-07T04:36:06.140Z,100673.81
2018-08-07T04:37:11.549Z,100669.01
2018-08-07T04:38:17.289Z,100671.41
2018-08-07T04:39:23.011Z,100664.55
2018-08-07T04:40:28.490Z,100665.12
2018-08-07T04:41:33.944Z,100668.24
2018-08-07T04:42:40.361Z,100662.69
2018-08-07T04:43:46.121Z,100661.56
2018-08-07T04:44:51.786Z,100667.31
2018-08-07T04:45:57.370Z,100660.42
2018-08-07T04:47:02.748Z,100667.48
2018-08-07T04:48:08.535Z,100661.06
2018-08-07T04:49:14.724Z,100666.84
2018-08-07T04:50:20.344Z,100667.87
2018-08-07T04:51:25.858Z,100672.59
2018-08-07T04:52:31.346Z,100667.14
2018-08-07T04:53:36.788Z,100672.69
2018-08-07T04:54:42.504Z,100668.63
2018-08-07T04:55:48.160Z,100669.09
2018-08-07T04:56:53.927Z,100676.42
2018-08-07T04:58:00.040Z,100673.34
2018-08-07T04:59:05.573Z,100677.72
2018-08-07T05:00:15.566Z,100675.86
2018-08-07T05:01:21.211Z,100671.95
2018-08-07T05:02:26.800Z,100671.86
2018-08-07T05:03:32.317Z,100672.13
2018-08-07T05:04:37.948Z,100671.77
2018-08-07T05:05:43.450Z,100662.86
2018-08-07T05:06:48.918Z,100669.17
2018-08-07T05:07:54.733Z,100666.92
2018-08-07T05:09:00.202Z,100670.08
2018-08-07T05:10:09.009Z,100662.75
2018-08-07T05:11:14.558Z,100666.08
2018-08-07T05:12:20.050Z,100666.08
2018-08-07T05:13:25.565Z,100653.64
2018-08-07T05:14:31.008Z,100661.61
2018-08-07T05:15:36.553Z,100663.30
2018-08-07T05:16:41.982Z,100669.40
2018-08-07T05:17:48.545Z,100662.42
2018-08-07T05:18:53.732Z,100665.22
2018-08-07T05:19:59.176Z,100668.55
2018-08-07T05:21:04.676Z,100667.03
2018-08-07T05:22:10.394Z,100671.22
2018-08-07T05:23:16.289Z,100670.50
2018-08-07T05:24:22.160Z,100667.41
2018-08-07T05:25:27.617Z,100667.23
2018-08-07T05:26:33.061Z,100670.18
2018-08-07T05:27:38.950Z,100669.61
2018-08-07T05:28:44.553Z,100669.08
2018-08-07T05:29:50.262Z,100672.85
2018-08-07T05:30:55.737Z,100672.00
2018-08-07T05:32:01.315Z,100673.38
2018-08-07T05:33:06.911Z,100673.21
2018-08-07T05:34:12.545Z,100670.95
2018-08-07T05:35:18.741Z,100671.81
2018-08-07T05:36:24.304Z,100677.34
2018-08-07T05:37:29.797Z,100675.85
2018-08-07T05:38:35.277Z,100674.55
2018-08-07T05:39:40.881Z,100673.70
2018-08-07T05:40:46.731Z,100676.73
2018-08-07T05:41:52.233Z,100680.45
2018-08-07T05:42:57.698Z,100679.41
2018-08-07T05:44:03.240Z,100681.82
2018-08-07T05:45:11.000Z,100680.33
2018-08-07T05:46:17.153Z,100680.99
2018-08-07T05:47:22.610Z,100678.45
2018-08-07T05:48:28.097Z,100678.03
2018-08-07T05:49:33.580Z,100679.72
2018-08-07T05:50:39.225Z,100682.00
2018-08-07T05:51:44.916Z,100677.17
2018-08-07T05:52:50.659Z,100673.06
2018-08-07T05:53:56.199Z,100673.22
2018-08-07T05:55:01.682Z,100678.28
2018-08-07T05:56:07.212Z,100677.52
2018-08-07T05:57:13.001Z,100679.94
2018-08-07T05:58:18.497Z,100675.73
2018-08-07T05:59:23.964Z,100682.40
2018-08-07T06:00:29.541Z,100684.13
2018-08-07T06:01:35.338Z,100684.37
2018-08-07T06:02:41.018Z,100684.80
2018-08-07T06:03:46.635Z,100687.45
2018-08-07T06:04:52.216Z,100678.78
2018-08-07T06:05:57.692Z,100682.84
2018-08-07T06:07:03.215Z,100686.34
2018-08-07T06:08:08.840Z,100684.12
2018-08-07T06:09:14.466Z,100679.22
2018-08-07T06:10:20.133Z,100683.78
2018-08-07T06:11:25.604Z,100682.13
2018-08-07T06:12:31.157Z,100681.62
2018-08-07T06:13:36.776Z,100689.82
2018-08-07T06:14:42.261Z,100685.38
2018-08-07T06:15:47.652Z,100683.52
2018-08-07T06:16:53.026Z,100686.53
2018-08-07T06:17:58.494Z,100683.98
2018-08-07T06:19:04.115Z,100691.48
2018-08-07T06:20:10.793Z,100690.00
2018-08-07T06:21:15.918Z,100690.63
2018-08-07T06:22:21.295Z,100694.13
2018-08-07T06:23:26.773Z,100694.04
2018-08-07T06:24:32.242Z,100693.46
2018-08-07T06:25:37.406Z,100692.54
2018-08-07T06:26:42.821Z,100694.45
2018-08-07T06:27:48.332Z,100692.48
2018-08-07T06:28:53.767Z,100692.23
2018-08-07T06:29:59.341Z,100688.69
2018-08-07T06:31:04.862Z,100689.30
2018-08-07T06:32:10.352Z,100688.26
2018-08-07T06:33:15.925Z,100691.47
2018-08-07T06:34:21.346Z,100689.45
2018-08-07T06:35:26.786Z,100691.84
2018-08-07T06:36:32.317Z,100687.09
2018-08-07T06:37:38.021Z,100689.47
2018-08-07T06:38:43.594Z,100685.43
2018-08-07T06:39:49.084Z,100689.13
2018-08-07T06:40:54.534Z,100690.31
2018-08-07T06:42:00.106Z,100689.11
2018-08-07T06:43:05.656Z,100691.27
2018-08-07T06:44:11.119Z,100686.47
2018-08-07T06:45:17.663Z,100690.53
2018-08-07T06:46:23.136Z,100681.84
2018-08-07T06:47:28.615Z,100687.39
2018-08-07T06:48:34.221Z,100684.30
2018-08-07T06:49:40.136Z,100688.33
2018-08-07T06:50:45.651Z,100682.25
2018-08-07T06:51:51.161Z,100681.89
2018-08-07T06:52:56.756Z,100684.50
2018-08-07T06:54:02.260Z,100683.02
2018-08-07T06:55:09.492Z,100685.38
2018-08-07T06:56:15.124Z,100680.95
2018-08-07T06:57:20.780Z,100680.84
2018-08-07T06:58:26.323Z,100681.41
2018-08-07T06:59:31.747Z,100679.09
2018-08-07T07:00:37.330Z,100680.74
2018-08-07T07:01:43.063Z,100676.17
2018-08-07T07:02:48.836Z,100681.16
2018-08-07T07:03:54.197Z,100682.19
2018-08-07T07:04:59.617Z,100680.87
2018-08-07T07:06:05.125Z,100680.02
2018-08-07T07:07:10.729Z,100685.55
2018-08-07T07:08:16.532Z,100680.51
2018-08-07T07:09:22.052Z,100681.65
2018-08-07T07:10:27.156Z,100684.23
2018-08-07T07:11:32.493Z,100687.42
2018-08-07T07:12:38.180Z,100683.44
2018-08-07T07:13:43.853Z,100677.81
2018-08-07T07:14:49.351Z,100678.22
2018-08-07T07:15:54.840Z,100680.95
2018-08-07T07:17:00.277Z,100681.97
2018-08-07T07:18:06.619Z,100683.46
2018-08-07T07:19:12.062Z,100688.53
2018-08-07T07:20:19.024Z,100685.23
2018-08-07T07:21:24.496Z,100684.61
2018-08-07T07:22:29.967Z,100683.95
2018-08-07T07:23:35.465Z,100680.71
2018-08-07T07:24:40.939Z,100680.09
2018-08-07T07:25:46.504Z,100683.95
2018-08-07T07:26:52.074Z,100686.09
2018-08-07T07:27:57.562Z,100684.55
2018-08-07T07:29:03.254Z,100679.34
2018-08-07T07:30:15.017Z,100679.47
2018-08-07T07:31:21.135Z,100686.80
2018-08-07T07:32:26.561Z,100678.59
2018-08-07T07:33:32.107Z,100683.02
2018-08-07T07:34:37.626Z,100687.58
2018-08-07T07:35:43.344Z,100685.56
2018-08-07T07:36:49.366Z,100688.75
2018-08-07T07:37:54.937Z,100682.59
2018-08-07T07:39:00.469Z,100685.38
2018-08-07T07:40:07.218Z,100682.36
2018-08-07T07:41:12.804Z,100681.23
2018-08-07T07:42:18.454Z,100683.14
2018-08-07T07:43:24.010Z,100681.97
2018-08-07T07:44:29.520Z,100682.92
2018-08-07T07:45:35.196Z,100683.16
2018-08-07T07:46:40.799Z,100679.03
2018-08-07T07:47:46.561Z,100682.62
2018-08-07T07:48:52.408Z,100678.75
2018-08-07T07:49:57.852Z,100679.98
2018-08-07T07:51:03.315Z,100674.13
2018-08-07T07:52:08.916Z,100674.04
2018-08-07T07:53:14.509Z,100676.77
2018-08-07T07:54:20.000Z,100673.27
2018-08-07T07:55:25.496Z,100681.51
2018-08-07T07:56:30.948Z,100677.05
2018-08-07T07:57:36.763Z,100673.08
2018-08-07T07:58:42.434Z,100674.22
2018-08-07T07:59:47.981Z,100677.75
2018-08-07T08:00:53.445Z,100674.09
2018-08-07T08:01:58.954Z,100671.91
2018-08-07T08:03:04.410Z,100672.55
2018-08-07T08:04:09.925Z,100674.31
2018-08-07T08:05:15.757Z,100674.19
2018-08-07T08:06:21.242Z,100669.16
2018-08-07T08:07:26.677Z,100671.20
2018-08-07T08:08:32.512Z,100672.05
2018-08-07T08:09:38.083Z,100664.08
2018-08-07T08:10:43.613Z,100673.24
2018-08-07T08:11:49.333Z,100673.93
2018-08-07T08:12:55.275Z,100668.30
2018-08-07T08:14:00.994Z,100665.58
2018-08-07T08:15:09.684Z,100671.05
2018-08-07T08:16:21.533Z,100669.02
2018-08-07T08:17:27.015Z,100664.78
2018-08-07T08:18:33.154Z,100670.15
2018-08-07T08:19:38.713Z,100665.70
2018-08-07T08:20:44.300Z,100673.36
2018-08-07T08:21:49.936Z,100670.95
2018-08-07T08:22:56.265Z,100672.59
2018-08-07T08:24:01.673Z,100671.64
2018-08-07T08:25:08.918Z,100674.13
2018-08-07T08:26:14.204Z,100670.18
2018-08-07T08:27:19.898Z,100672.02
2018-08-07T08:28:25.642Z,100670.55
2018-08-07T08:29:31.379Z,100667.45
2018-08-07T08:30:36.661Z,100674.87
2018-08-07T08:31:42.101Z,100672.77
2018-08-07T08:32:48.185Z,100672.30
2018-08-07T08:33:53.720Z,100665.86
2018-08-07T08:34:59.267Z,100675.81
2018-08-07T08:36:04.765Z,100676.48
2018-08-07T08:37:10.176Z,100675.09
2018-08-07T08:38:15.780Z,100671.59
2018-08-07T08:39:21.281Z,100673.47
2018-08-07T08:40:27.104Z,100670.52
2018-08-07T08:41:32.541Z,100671.34
2018-08-07T08:42:38.914Z,100673.20
2018-08-07T08:43:44.598Z,100674.87
2018-08-07T08:44:50.097Z,100666.47
2018-08-07T08:45:55.665Z,100664.17
2018-08-07T08:47:01.128Z,100665.17
2018-08-07T08:48:07.580Z,100666.84
2018-08-07T08:49:13.249Z,100664.70
2018-08-07T08:50:20.771Z,100662.86
2018-08-07T08:51:26.044Z,100668.83
2018-08-07T08:52:31.490Z,100669.50
2018-08-07T08:53:36.969Z,100669.16
2018-08-07T08:54:42.437Z,100661.75
2018-08-07T08:55:47.937Z,100665.23
2018-08-07T08:56:53.890Z,100660.24
2018-08-07T08:57:59.410Z,100668.01
2018-08-07T08:59:05.861Z,100663.23
2018-08-07T09:00:19.972Z,100665.20
2018-08-07T09:01:25.528Z,100658.42
2018-08-07T09:02:31.486Z,100660.36
2018-08-07T09:03:37.013Z,100658.55
2018-08-07T09:04:42.549Z,100657.87
2018-08-07T09:05:48.523Z,100663.50
2018-08-07T09:06:54.275Z,100655.88
2018-08-07T09:07:59.724Z,100657.32
2018-08-07T09:09:08.730Z,100656.45
2018-08-07T09:10:22.623Z,100652.48
2018-08-07T09:11:28.506Z,100657.42
2018-08-07T09:12:34.057Z,100651.11
2018-08-07T09:13:39.959Z,100650.63
2018-08-07T09:14:45.895Z,100651.08
2018-08-07T09:15:52.214Z,100645.45
2018-08-07T09:16:57.755Z,100648.07
2018-08-07T09:18:03.293Z,100645.75
2018-08-07T09:19:08.821Z,100646.91
2018-08-07T09:20:21.642Z,100645.05
2018-08-07T09:21:27.629Z,100645.87
2018-08-07T09:22:33.174Z,100639.91
2018-08-07T09:23:38.840Z,100643.22
2018-08-07T09:24:44.442Z,100638.19
2018-08-07T09:25:51.253Z,100637.84
2018-08-07T09:26:56.688Z,100637.98
2018-08-07T09:28:02.165Z,100637.09
2018-08-07T09:29:07.793Z,100636.20
2018-08-07T09:30:17.824Z,100636.16
2018-08-07T09:31:23.405Z,100634.14
2018-08-07T09:32:28.946Z,100632.29
2018-08-07T09:33:34.397Z,100635.08
2018-08-07T09:34:39.932Z,100631.39
2018-08-07T09:35:45.566Z,100629.03
2018-08-07T09:36:51.044Z,100623.67
2018-08-07T09:37:57.796Z,100628.13
2018-08-07T09:39:03.344Z,100625.47
2018-08-07T09:40:12.181Z,100614.34
2018-08-07T09:41:18.074Z,100618.02
2018-08-07T09:42:23.825Z,100622.39
2018-08-07T09:43:29.291Z,100612.08
2018-08-07T09:44:34.818Z,100611.56
2018-08-07T09:45:40.321Z,100613.64
2018-08-07T09:46:46.033Z,100614.74
2018-08-07T09:47:51.536Z,100609.10
2018-08-07T09:48:57.244Z,100611.06
2018-08-07T09:50:02.761Z,100602.58
2018-08-07T09:51:08.521Z,100608.51
2018-08-07T09:52:14.482Z,100609.94
2018-08-07T09:53:20.110Z,100608.39
2018-08-07T09:54:25.781Z,100602.08
2018-08-07T09:55:31.434Z,100602.25
2018-08-07T09:56:37.024Z,100600.57
2018-08-07T09:57:42.652Z,100595.32
2018-08-07T09:58:48.524Z,100600.05
2018-08-07T09:59:54.179Z,100592.44
2018-08-07T10:01:04.946Z,100595.56
2018-08-07T10:02:15.546Z,100593.19
2018-08-07T10:03:21.237Z,100590.66
2018-08-07T10:04:26.821Z,100590.58
2018-08-07T10:05:33.556Z,100592.64
2018-08-07T10:06:39.141Z,100592.89
2018-08-07T10:07:44.658Z,100589.30
2018-08-07T10:08:50.192Z,100593.68
2018-08-07T10:09:55.723Z,100591.11
2018-08-07T10:11:01.149Z,100593.28
2018-08-07T10:12:06.686Z,100587.89
2018-08-07T10:13:12.412Z,100581.14
2018-08-07T10:14:17.979Z,100581.00
2018-08-07T10:15:23.469Z,100578.27
2018-08-07T10:16:29.018Z,100582.44
2018-08-07T10:17:34.588Z,100581.38
2018-08-07T10:18:40.134Z,100584.41
2018-08-07T10:19:45.716Z,100583.78
2018-08-07T10:20:51.241Z,100577.39
2018-08-07T10:21:57.144Z,100576.25
2018-08-07T10:23:02.658Z,100577.20
2018-08-07T10:24:08.153Z,100572.52
2018-08-07T10:25:18.436Z,100561.17
2018-08-07T10:26:23.929Z,100568.16
2018-08-07T10:27:29.441Z,100565.61
2018-08-07T10:28:34.956Z,100567.75
2018-08-07T10:29:40.498Z,100568.97
2018-08-07T10:30:46.464Z,100564.34
2018-08-07T10:31:52.230Z,100557.27
2018-08-07T10:32:57.758Z,100556.11
2018-08-07T10:34:03.361Z,100556.23
2018-08-07T10:35:09.669Z,100558.34
2018-08-07T10:36:15.308Z,100554.09
2018-08-07T10:37:20.976Z,100557.27
2018-08-07T10:38:27.644Z,100553.64
2018-08-07T10:39:33.072Z,100554.19
2018-08-07T10:40:38.660Z,100555.47
2018-08-07T10:41:44.258Z,100552.20
2018-08-07T10:42:50.054Z,100553.54
2018-08-07T10:43:55.602Z,100549.03
2018-08-07T10:45:00.986Z,100550.61
2018-08-07T10:46:06.949Z,100548.52
2018-08-07T10:47:12.375Z,100547.67
2018-08-07T10:48:17.962Z,100542.23
2018-08-07T10:49:23.656Z,100539.52
2018-08-07T10:50:30.073Z,100542.95
2018-08-07T10:51:35.638Z,100546.72
2018-08-07T10:52:41.207Z,100550.06
2018-08-07T10:53:47.201Z,100541.87
2018-08-07T10:54:52.716Z,100539.22
2018-08-07T10:55:58.207Z,100539.35
2018-08-07T10:57:03.768Z,100543.41
2018-08-07T10:58:09.471Z,100539.82
2018-08-07T10:59:15.037Z,100541.69
2018-08-07T11:00:24.878Z,100541.50
2018-08-07T11:01:30.350Z,100537.98
2018-08-07T11:02:35.926Z,100538.87
2018-08-07T11:03:41.788Z,100539.64
2018-08-07T11:04:48.265Z,100534.84
2018-08-07T11:05:53.741Z,100532.66
2018-08-07T11:06:59.229Z,100531.13
2018-08-07T11:08:04.864Z,100529.89
2018-08-07T11:09:11.422Z,100531.84
2018-08-07T11:10:17.345Z,100532.80
2018-08-07T11:11:23.733Z,100525.98
2018-08-07T11:12:29.273Z,100530.52
2018-08-07T11:13:34.794Z,100531.66
2018-08-07T11:14:40.416Z,100525.03
2018-08-07T11:15:46.067Z,100527.80
2018-08-07T11:16:51.145Z,100529.47
2018-08-07T11:17:57.814Z,100528.40
2018-08-07T11:19:03.367Z,100532.83
2018-08-07T11:20:11.843Z,100527.75
2018-08-07T11:21:17.450Z,100520.76
2018-08-07T11:22:23.069Z,100524.83
2018-08-07T11:23:28.597Z,100529.38
2018-08-07T11:24:34.207Z,100528.86
2018-08-07T11:25:39.709Z,100522.09
2018-08-07T11:26:45.326Z,100523.86
2018-08-07T11:27:50.899Z,100522.33
2018-08-07T11:28:56.428Z,100527.17
2018-08-07T11:30:02.012Z,100516.53
2018-08-07T11:31:07.546Z,100519.39
2018-08-07T11:32:13.228Z,100508.11
2018-08-07T11:33:18.754Z,100514.97
2018-08-07T11:34:24.425Z,100518.39
2018-08-07T11:35:30.231Z,100519.30
2018-08-07T11:36:35.727Z,100523.20
2018-08-07T11:37:41.717Z,100516.57
2018-08-07T11:38:47.348Z,100515.20
2018-08-07T11:39:53.029Z,100515.63
2018-08-07T11:40:58.500Z,100517.28
2018-08-07T11:42:04.142Z,100513.25
2018-08-07T11:43:09.775Z,100507.92
2018-08-07T11:44:15.495Z,100514.72
2018-08-07T11:45:23.156Z,100508.57
2018-08-07T11:46:28.666Z,100508.30
2018-08-07T11:47:34.113Z,100508.23
2018-08-07T11:48:39.579Z,100510.13
2018-08-07T11:49:45.372Z,100504.30
2018-08-07T11:50:51.063Z,100511.26
2018-08-07T11:51:56.736Z,100515.67
2018-08-07T11:53:02.281Z,100506.36
2018-08-07T11:54:08.225Z,100506.72
2018-08-07T11:55:16.123Z,100508.57
2018-08-07T11:56:21.924Z,100508.89
2018-08-07T11:57:27.469Z,100507.27
2018-08-07T11:58:33.356Z,100508.94
2018-08-07T11:59:39.087Z,100502.75
2018-08-07T12:00:44.844Z,100501.94
2018-08-07T12:01:53.428Z,100497.94
2018-08-07T12:02:59.033Z,100496.38
2018-08-07T12:04:05.145Z,100490.27
2018-08-07T12:05:10.691Z,100495.61
2018-08-07T12:06:16.512Z,100494.47
2018-08-07T12:07:22.135Z,100483.39
2018-08-07T12:08:27.690Z,100486.28
2018-08-07T12:09:33.176Z,100484.01
2018-08-07T12:10:38.596Z,100481.75
2018-08-07T12:11:44.249Z,100479.03
2018-08-07T12:12:49.872Z,100483.88
2018-08-07T12:13:55.960Z,100486.55
2018-08-07T12:15:01.427Z,100480.91
2018-08-07T12:16:07.062Z,100484.19
2018-08-07T12:17:12.868Z,100485.63
2018-08-07T12:18:18.368Z,100486.45
2018-08-07T12:19:23.976Z,100483.05
2018-08-07T12:20:29.554Z,100477.20
2018-08-07T12:21:35.156Z,100476.91
2018-08-07T12:22:40.734Z,100473.53
2018-08-07T12:23:46.381Z,100470.13
2018-08-07T12:24:51.937Z,100473.83
2018-08-07T12:25:57.505Z,100476.50
2018-08-07T12:27:03.388Z,100471.05
2018-08-07T12:28:08.824Z,100466.73
2018-08-07T12:29:14.426Z,100466.16
2018-08-07T12:30:22.436Z,100466.45
2018-08-07T12:31:27.992Z,100472.00